createdAt,value
2017-10-06T11:19:50.346Z,99846.59
2017-10-06T11:20:56.604Z,99846.22
2017-10-06T11:22:02.485Z,99856.45
2017-10-06T11:23:07.577Z,99849.23
2017-10-06T11:24:14.162Z,99850.55
2017-10-06T11:25:19.683Z,99852.05
2017-10-06T11:26:25.009Z,99855.34
2017-10-06T11:27:30.127Z,99843.16
2017-10-06T11:28:36.349Z,99843.34
2017-10-06T11:29:41.517Z,99841.67
2017-10-06T11:30:46.849Z,99854.48
2017-10-06T11:31:53.415Z,99837.94
2017-10-06T11:32:59.346Z,99843.38
2017-10-06T11:34:05.710Z,99842.19
2017-10-06T11:35:11.180Z,99832.81
2017-10-06T11:36:17.312Z,99839.53
2017-10-06T11:37:23.314Z,99838.23
2017-10-06T11:38:30.116Z,99838.38
2017-10-06T11:39:35.194Z,99844.59
2017-10-06T11:40:40.796Z,99841.72
2017-10-06T11:41:46.002Z,99839.94
2017-10-06T11:42:51.539Z,99829.00
2017-10-06T11:43:56.712Z,99836.59
2017-10-06T11:45:01.816Z,99845.37
2017-10-06T11:46:07.594Z,99843.05
2017-10-06T11:47:13.863Z,99839.77
2017-10-06T11:48:18.944Z,99835.05
2017-10-06T11:49:24.056Z,99847.36
2017-10-06T11:50:30.426Z,99837.05
2017-10-06T11:51:35.851Z,99845.61
2017-10-06T11:52:40.952Z,99836.92
2017-10-06T11:53:47.141Z,99849.74
2017-10-06T11:54:52.605Z,99841.98
2017-10-06T11:55:57.824Z,99845.88
2017-10-06T11:57:03.936Z,99848.97
2017-10-06T11:58:09.851Z,99842.55
2017-10-06T11:59:16.370Z,99840.63
2017-10-06T12:00:21.464Z,99843.95
2017-10-06T12:01:27.018Z,99842.80
2017-10-06T12:02:32.606Z,99842.67
2017-10-06T12:03:38.814Z,99838.85
2017-10-06T12:04:44.693Z,99842.84
2017-10-06T12:05:51.381Z,99847.97
2017-10-06T12:06:57.020Z,99845.02
2017-10-06T12:08:02.450Z,99852.19
2017-10-06T12:09:08.639Z,99842.98
2017-10-06T12:10:14.065Z,99846.11
2017-10-06T12:11:19.464Z,99855.84
2017-10-06T12:12:25.649Z,99849.22
2017-10-06T12:13:30.711Z,99861.33
2017-10-06T12:14:37.720Z,99861.95
2017-10-06T12:15:43.177Z,99859.68
2017-10-06T12:16:48.958Z,99860.98
2017-10-06T12:17:56.272Z,99860.08
2017-10-06T12:19:01.411Z,99853.12
2017-10-06T12:20:06.859Z,99863.39
2017-10-06T12:21:12.370Z,99864.95
2017-10-06T12:22:17.781Z,99855.32
2017-10-06T12:23:23.981Z,99861.19
2017-10-06T12:24:29.255Z,99852.02
2017-10-06T12:25:35.143Z,99859.48
2017-10-06T12:26:40.907Z,99852.67
2017-10-06T12:27:46.645Z,99862.45
2017-10-06T12:28:52.060Z,99856.70
2017-10-06T12:29:57.465Z,99863.41
2017-10-06T12:31:04.023Z,99866.20
2017-10-06T12:32:09.949Z,99861.20
2017-10-06T12:33:15.627Z,99861.20
2017-10-06T12:34:20.486Z,99869.73
2017-10-06T12:35:26.183Z,99873.60
2017-10-06T12:36:35.084Z,99871.97
2017-10-06T12:37:40.313Z,99868.56
2017-10-06T12:38:47.302Z,99872.09
2017-10-06T12:39:53.131Z,99876.55
2017-10-06T12:40:59.292Z,99872.18
2017-10-06T12:42:04.415Z,99870.36
2017-10-06T12:43:10.315Z,99870.02
2017-10-06T12:44:16.580Z,99863.80
2017-10-06T12:45:21.675Z,99860.89
2017-10-06T12:46:27.451Z,99872.08
2017-10-06T12:47:32.910Z,99870.67
2017-10-06T12:48:39.435Z,99862.39
2017-10-06T12:49:44.849Z,99863.51
2017-10-06T12:50:50.280Z,99868.00
2017-10-06T12:51:56.143Z,99868.97
2017-10-06T12:53:01.627Z,99867.81
2017-10-06T12:54:07.573Z,99875.84
2017-10-06T12:55:13.417Z,99873.08
2017-10-06T12:56:18.656Z,99877.76
2017-10-06T12:57:23.733Z,99873.70
2017-10-06T12:58:29.857Z,99879.49
2017-10-06T12:59:35.141Z,99877.70
2017-10-06T13:00:41.089Z,99874.89
2017-10-06T13:01:46.509Z,99879.23
2017-10-06T13:02:52.477Z,99880.97
2017-10-06T13:03:58.302Z,99879.04
2017-10-06T13:05:04.769Z,99885.02
2017-10-06T13:06:11.072Z,99874.24
2017-10-06T13:07:16.859Z,99874.85
2017-10-06T13:08:22.706Z,99887.16
2017-10-06T13:09:29.485Z,99881.02
2017-10-06T13:10:34.712Z,99890.88
2017-10-06T13:11:41.017Z,99878.06
2017-10-06T13:12:46.893Z,99880.69
2017-10-06T13:13:52.886Z,99889.83
2017-10-06T13:14:58.247Z,99891.20
2017-10-06T13:16:04.888Z,99885.80
2017-10-06T13:17:10.172Z,99884.44
2017-10-06T13:18:16.835Z,99887.80
2017-10-06T13:19:23.604Z,99882.85
2017-10-06T13:20:31.187Z,99877.56
2017-10-06T13:21:36.732Z,99883.33
2017-10-06T13:22:42.646Z,99880.02
2017-10-06T13:23:49.393Z,99877.91
2017-10-06T13:24:56.178Z,99882.59
2017-10-06T13:26:02.016Z,99882.67
2017-10-06T13:27:08.618Z,99882.67
2017-10-06T13:28:15.887Z,99878.92
2017-10-06T13:29:21.773Z,99880.64
2017-10-06T13:30:27.749Z,99885.59
2017-10-06T13:31:35.569Z,99881.98
2017-10-06T13:32:42.108Z,99879.02
2017-10-06T13:33:50.411Z,99880.88
2017-10-06T13:34:57.104Z,99885.30
2017-10-06T13:36:02.931Z,99888.68
2017-10-06T13:37:09.805Z,99885.29
2017-10-06T13:38:15.706Z,99879.16
2017-10-06T13:39:21.490Z,99890.20
2017-10-06T13:40:27.244Z,99888.33
2017-10-06T13:41:34.101Z,99882.95
2017-10-06T13:42:40.010Z,99881.54
2017-10-06T13:43:48.041Z,99877.98
2017-10-06T13:44:56.570Z,99885.23
2017-10-06T13:46:02.595Z,99885.42
2017-10-06T13:47:10.690Z,99885.08
2017-10-06T13:48:16.517Z,99886.45
2017-10-06T13:49:23.030Z,99877.86
2017-10-06T13:50:29.638Z,99894.36
2017-10-06T13:51:36.522Z,99890.64
2017-10-06T13:52:42.354Z,99906.56
2017-10-06T13:53:49.334Z,99894.11
2017-10-06T13:54:56.658Z,99906.52
2017-10-06T13:56:02.557Z,99907.36
2017-10-06T13:57:09.071Z,99905.12
2017-10-06T13:58:15.645Z,99914.48
2017-10-06T13:59:22.292Z,99910.53
2017-10-06T14:00:28.185Z,99918.80
2017-10-06T14:01:34.708Z,99918.05
2017-10-06T14:02:41.237Z,99923.64
2017-10-06T14:03:48.027Z,99925.18
2017-10-06T14:04:54.927Z,99927.32
2017-10-06T14:06:01.191Z,99935.11
2017-10-06T14:07:08.067Z,99943.38
2017-10-06T14:08:14.285Z,99948.55
2017-10-06T14:09:21.259Z,99953.09
2017-10-06T14:10:28.151Z,99949.86
2017-10-06T14:11:33.933Z,99960.45
2017-10-06T14:12:39.690Z,99958.28
2017-10-06T14:13:45.260Z,99952.17
2017-10-06T14:14:51.207Z,99958.89
2017-10-06T14:15:57.829Z,99958.31
2017-10-06T14:17:03.656Z,99958.15
2017-10-06T14:18:09.406Z,99948.67
2017-10-06T14:19:15.999Z,99962.15
2017-10-06T14:20:21.854Z,99957.34
2017-10-06T14:21:27.889Z,99968.48
2017-10-06T14:22:33.859Z,99962.60
2017-10-06T14:23:39.610Z,99959.80
2017-10-06T14:24:45.482Z,99960.06
2017-10-06T14:25:51.646Z,99964.78
2017-10-06T14:26:58.192Z,99971.56
2017-10-06T14:28:04.722Z,99967.16
2017-10-06T14:29:10.639Z,99970.40
2017-10-06T14:30:16.431Z,99972.55
2017-10-06T14:32:28.306Z,99975.01
2017-10-06T14:33:33.909Z,99966.91
2017-10-06T14:34:39.856Z,99970.52
2017-10-06T14:35:45.637Z,99974.66
2017-10-06T14:36:51.412Z,99981.69
2017-10-06T14:37:57.241Z,99979.63
2017-10-06T14:39:03.283Z,99983.48
2017-10-06T14:40:09.483Z,99988.16
2017-10-06T14:41:16.152Z,99988.86
2017-10-06T14:42:22.056Z,99994.06
2017-10-06T14:43:27.866Z,99996.36
2017-10-06T14:44:33.748Z,99994.82
2017-10-06T14:45:40.359Z,99994.73
2017-10-06T14:46:45.849Z,99992.24
2017-10-06T14:47:52.375Z,99993.98
2017-10-06T14:48:58.450Z,99996.56
2017-10-06T14:50:04.890Z,100006.83
2017-10-06T14:51:11.763Z,100004.02
2017-10-06T14:52:17.718Z,100000.08
2017-10-06T14:53:24.989Z,100001.83
2017-10-06T14:54:31.602Z,99998.85
2017-10-06T14:55:38.347Z,99997.11
2017-10-06T14:56:44.945Z,100004.29
2017-10-06T14:57:51.592Z,100014.38
2017-10-06T14:58:57.569Z,100008.65
2017-10-06T15:00:03.408Z,100009.89
2017-10-06T15:01:09.010Z,100007.00
2017-10-06T15:02:16.383Z,100009.61
2017-10-06T15:03:22.182Z,100009.58
2017-10-06T15:04:29.819Z,100012.87
2017-10-06T15:05:35.669Z,100012.40
2017-10-06T15:06:41.457Z,100011.08
2017-10-06T15:07:47.457Z,100016.28
2017-10-06T15:08:53.213Z,100011.16
2017-10-06T15:10:00.214Z,100011.84
2017-10-06T15:11:06.089Z,100008.18
2017-10-06T15:12:12.824Z,100009.75
2017-10-06T15:13:19.335Z,100014.44
2017-10-06T15:14:25.450Z,100022.01
2017-10-06T15:15:34.295Z,100023.25
2017-10-06T15:16:40.652Z,100019.94
2017-10-06T15:17:46.673Z,100017.66
2017-10-06T15:18:53.447Z,100020.33
2017-10-06T15:20:00.362Z,100024.38
2017-10-06T15:21:07.313Z,100020.23
2017-10-06T15:22:13.582Z,100018.73
2017-10-06T15:23:19.531Z,100020.33
2017-10-06T15:24:25.475Z,100020.11
2017-10-06T15:25:32.051Z,100024.92
2017-10-06T15:26:37.949Z,100021.52
2017-10-06T15:27:44.101Z,100024.88
2017-10-06T15:28:50.048Z,100018.34
2017-10-06T15:29:56.091Z,100023.41
2017-10-06T15:31:02.016Z,100016.27
2017-10-06T15:32:08.587Z,100022.24
2017-10-06T15:33:15.468Z,100026.52
2017-10-06T15:34:21.518Z,100015.39
2017-10-06T15:35:27.386Z,100025.94
2017-10-06T15:36:33.360Z,100024.38
2017-10-06T15:37:39.252Z,100020.98
2017-10-06T15:38:45.503Z,100029.84
2017-10-06T15:39:52.613Z,100022.81
2017-10-06T15:40:59.633Z,100023.05
2017-10-06T15:42:06.219Z,100022.55
2017-10-06T15:43:12.156Z,100023.83
2017-10-06T15:44:18.242Z,100017.45
2017-10-06T15:45:24.147Z,100021.22
2017-10-06T15:46:30.093Z,100015.39
2017-10-06T15:47:35.882Z,100018.84
2017-10-06T15:48:41.471Z,100024.87
2017-10-06T15:49:47.269Z,100029.30
2017-10-06T15:50:53.467Z,100035.31
2017-10-06T15:51:59.262Z,100036.28
2017-10-06T15:53:05.395Z,100040.83
2017-10-06T15:54:12.279Z,100047.13
2017-10-06T15:55:18.379Z,100042.70
2017-10-06T15:56:25.761Z,100047.07
2017-10-06T15:57:32.266Z,100046.42
2017-10-06T15:58:39.279Z,100052.73
2017-10-06T15:59:45.545Z,100055.38
2017-10-06T16:00:51.792Z,100057.70
2017-10-06T16:01:58.305Z,100055.38
2017-10-06T16:03:05.159Z,100055.05
2017-10-06T16:04:11.464Z,100062.84
2017-10-06T16:05:17.704Z,100071.75
2017-10-06T16:06:24.696Z,100059.44
2017-10-06T16:07:34.385Z,100050.94
2017-10-06T16:09:05.254Z,100057.16
2017-10-06T16:10:15.291Z,100058.27
2017-10-06T16:11:22.846Z,100060.70
2017-10-06T16:12:28.937Z,100070.56
2017-10-06T16:13:35.104Z,100062.32
2017-10-06T16:14:41.566Z,100065.68
2017-10-06T16:15:48.768Z,100060.56
2017-10-06T16:16:55.288Z,100074.53
2017-10-06T16:18:01.546Z,100076.28
2017-10-06T16:19:08.840Z,100070.64
2017-10-06T16:20:15.953Z,100075.94
2017-10-06T16:21:22.601Z,100075.70
2017-10-06T16:22:29.113Z,100077.59
2017-10-06T16:23:35.942Z,100075.52
2017-10-06T16:24:42.424Z,100078.11
2017-10-06T16:25:48.882Z,100083.80
2017-10-06T16:26:55.002Z,100089.49
2017-10-06T16:28:01.648Z,100086.81
2017-10-06T16:29:09.436Z,100090.93
2017-10-06T16:30:15.799Z,100089.07
2017-10-06T16:31:23.267Z,100089.41
2017-10-06T16:32:30.412Z,100095.86
2017-10-06T16:33:36.805Z,100093.61
2017-10-06T16:34:42.675Z,100091.63
2017-10-06T16:35:48.801Z,100097.55
2017-10-06T16:36:55.904Z,100092.20
2017-10-06T16:38:02.158Z,100088.31
2017-10-06T16:39:08.194Z,100104.52
2017-10-06T16:40:15.089Z,100101.42
2017-10-06T16:41:21.347Z,100110.05
2017-10-06T16:42:27.529Z,100112.56
2017-10-06T16:43:33.698Z,100114.97
2017-10-06T16:44:40.713Z,100113.38
2017-10-06T16:45:46.655Z,100112.38
2017-10-06T16:46:52.762Z,100116.38
2017-10-06T16:47:58.853Z,100114.58
2017-10-06T16:49:04.797Z,100119.59
2017-10-06T16:50:10.745Z,100124.89
2017-10-06T16:51:16.899Z,100120.78
2017-10-06T16:52:22.986Z,100128.25
2017-10-06T16:53:29.192Z,100126.84
2017-10-06T16:54:35.121Z,100129.27
2017-10-06T16:55:41.909Z,100133.38
2017-10-06T16:56:47.857Z,100137.98
2017-10-06T16:57:53.654Z,100137.16
2017-10-06T16:58:59.649Z,100145.43
2017-10-06T17:00:05.570Z,100145.14
2017-10-06T17:01:12.204Z,100136.89
2017-10-06T17:02:18.191Z,100141.84
2017-10-06T17:03:24.335Z,100143.61
2017-10-06T17:04:30.193Z,100145.65
2017-10-06T17:05:36.085Z,100143.89
2017-10-06T17:06:43.093Z,100144.07
2017-10-06T17:07:49.151Z,100147.80
2017-10-06T17:08:55.235Z,100145.27
2017-10-06T17:10:01.670Z,100150.13
2017-10-06T17:11:07.915Z,100148.14
2017-10-06T17:12:14.217Z,100158.20
2017-10-06T17:13:20.626Z,100151.03
2017-10-06T17:14:27.117Z,100161.17
2017-10-06T17:15:34.637Z,100160.23
2017-10-06T17:16:40.990Z,100164.16
2017-10-06T17:17:50.060Z,100160.95
2017-10-06T17:18:56.089Z,100161.20
2017-10-06T17:20:01.831Z,100167.77
2017-10-06T17:21:07.982Z,100171.46
2017-10-06T17:22:14.116Z,100175.34
2017-10-06T17:23:20.755Z,100175.67
2017-10-06T17:24:27.328Z,100176.76
2017-10-06T17:25:33.449Z,100179.02
2017-10-06T17:26:40.282Z,100183.03
2017-10-06T17:27:46.394Z,100185.02
2017-10-06T17:28:53.287Z,100177.14
2017-10-06T17:30:00.126Z,100185.95
2017-10-06T17:31:07.028Z,100188.36
2017-10-06T17:32:13.077Z,100185.19
2017-10-06T17:33:19.095Z,100189.63
2017-10-06T17:34:25.067Z,100193.73
2017-10-06T17:35:31.218Z,100187.50
2017-10-06T17:36:37.178Z,100184.80
2017-10-06T17:37:43.524Z,100186.80
2017-10-06T17:38:49.630Z,100191.88
2017-10-06T17:39:56.167Z,100186.69
2017-10-06T17:41:03.106Z,100197.05
2017-10-06T17:42:09.158Z,100200.08
2017-10-06T17:43:15.223Z,100202.80
2017-10-06T17:44:21.134Z,100205.64
2017-10-06T17:45:27.851Z,100204.97
2017-10-06T17:46:33.913Z,100196.45
2017-10-06T17:47:41.020Z,100202.11
2017-10-06T17:48:47.444Z,100199.66
2017-10-06T17:49:53.641Z,100208.11
2017-10-06T17:50:59.682Z,100206.76
2017-10-06T17:52:05.561Z,100213.08
2017-10-06T17:53:11.779Z,100214.17
2017-10-06T17:54:17.831Z,100218.78
2017-10-06T17:55:23.920Z,100216.23
2017-10-06T17:56:31.254Z,100219.86
2017-10-06T17:57:37.609Z,100223.73
2017-10-06T17:58:44.067Z,100218.70
2017-10-06T17:59:52.158Z,100220.72
2017-10-06T18:00:58.372Z,100226.16
2017-10-06T18:02:05.733Z,100229.02
2017-10-06T18:03:11.916Z,100223.03
2017-10-06T18:04:18.989Z,100224.12
2017-10-06T18:05:25.139Z,100229.82
2017-10-06T18:06:31.276Z,100232.12
2017-10-06T18:07:38.192Z,100234.72
2017-10-06T18:08:44.463Z,100231.56
2017-10-06T18:09:50.694Z,100233.73
2017-10-06T18:10:57.738Z,100238.23
2017-10-06T18:12:04.681Z,100240.25
2017-10-06T18:13:11.627Z,100241.09
2017-10-06T18:14:17.800Z,100241.89
2017-10-06T18:15:24.211Z,100238.02
2017-10-06T18:16:30.717Z,100252.68
2017-10-06T18:17:37.619Z,100249.19
2017-10-06T18:18:43.609Z,100248.66
2017-10-06T18:19:49.803Z,100254.08
2017-10-06T18:20:56.708Z,100265.81
2017-10-06T18:22:02.752Z,100256.58
2017-10-06T18:23:09.231Z,100264.63
2017-10-06T18:24:17.411Z,100270.83
2017-10-06T18:25:23.583Z,100265.83
2017-10-06T18:26:29.818Z,100270.73
2017-10-06T18:27:35.965Z,100276.50
2017-10-06T18:28:43.696Z,100275.67
2017-10-06T18:29:50.618Z,100276.45
2017-10-06T18:30:56.839Z,100275.45
2017-10-06T18:32:03.811Z,100277.19
2017-10-06T18:33:11.305Z,100284.21
2017-10-06T18:34:18.501Z,100279.62
2017-10-06T18:35:24.652Z,100287.31
2017-10-06T18:36:30.826Z,100284.34
2017-10-06T18:37:36.954Z,100285.09
2017-10-06T18:38:43.001Z,100291.05
2017-10-06T18:39:49.133Z,100298.65
2017-10-06T18:40:55.253Z,100293.62
2017-10-06T18:42:01.601Z,100297.39
2017-10-06T18:43:07.919Z,100297.52
2017-10-06T18:44:14.215Z,100297.95
2017-10-06T18:45:20.710Z,100297.38
2017-10-06T18:46:26.686Z,100298.53
2017-10-06T18:47:32.876Z,100307.36
2017-10-06T18:48:39.310Z,100301.27
2017-10-06T18:49:45.799Z,100303.97
2017-10-06T18:50:53.124Z,100311.35
2017-10-06T18:51:59.272Z,100303.08
2017-10-06T18:53:06.410Z,100306.36
2017-10-06T18:54:13.528Z,100312.95
2017-10-06T18:55:19.734Z,100306.56
2017-10-06T18:56:27.799Z,100316.00
2017-10-06T18:57:34.017Z,100316.91
2017-10-06T18:58:40.374Z,100319.27
2017-10-06T18:59:47.241Z,100319.34
2017-10-06T19:00:53.331Z,100325.03
2017-10-06T19:01:59.502Z,100317.12
2017-10-06T19:03:07.442Z,100321.00
2017-10-06T19:04:14.019Z,100321.48
2017-10-06T19:05:20.241Z,100320.92
2017-10-06T19:06:26.461Z,100335.42
2017-10-06T19:07:33.258Z,100326.66
2017-10-06T19:08:39.428Z,100336.30
2017-10-06T19:09:45.674Z,100332.06
2017-10-06T19:10:51.872Z,100335.37
2017-10-06T19:11:59.994Z,100330.73
2017-10-06T19:13:06.074Z,100336.12
2017-10-06T19:14:12.116Z,100335.91
2017-10-06T19:15:19.210Z,100341.13
2017-10-06T19:16:25.437Z,100340.02
2017-10-06T19:17:31.547Z,100344.74
2017-10-06T19:18:39.379Z,100342.87
2017-10-06T19:19:46.452Z,100341.27
2017-10-06T19:20:52.703Z,100345.91
2017-10-06T19:21:59.119Z,100347.85
2017-10-06T19:23:06.034Z,100350.62
2017-10-06T19:24:12.094Z,100350.02
2017-10-06T19:25:18.184Z,100351.94
2017-10-06T19:26:25.197Z,100350.88
2017-10-06T19:27:31.347Z,100354.39
2017-10-06T19:28:37.497Z,100354.73
2017-10-06T19:29:43.751Z,100358.95
2017-10-06T19:30:49.974Z,100357.92
2017-10-06T19:31:57.020Z,100358.40
2017-10-06T19:33:03.130Z,100365.67
2017-10-06T19:34:10.238Z,100370.95
2017-10-06T19:35:17.806Z,100365.75
2017-10-06T19:36:23.879Z,100372.21
2017-10-06T19:37:29.781Z,100369.84
2017-10-06T19:38:36.162Z,100370.71
2017-10-06T19:39:42.233Z,100376.72
2017-10-06T19:40:48.890Z,100374.51
2017-10-06T19:41:55.709Z,100383.13
2017-10-06T19:43:02.546Z,100376.25
2017-10-06T19:44:10.877Z,100375.75
2017-10-06T19:45:16.855Z,100383.66
2017-10-06T19:46:22.923Z,100386.66
2017-10-06T19:47:30.574Z,100387.72
2017-10-06T19:48:37.735Z,100388.14
2017-10-06T19:49:44.238Z,100387.51
2017-10-06T19:50:51.712Z,100389.37
2017-10-06T19:51:57.644Z,100392.22
2017-10-06T19:53:03.787Z,100394.81
2017-10-06T19:54:10.042Z,100395.63
2017-10-06T19:55:16.191Z,100391.75
2017-10-06T19:56:22.425Z,100393.22
2017-10-06T19:57:28.685Z,100397.37
2017-10-06T19:58:35.650Z,100397.89
2017-10-06T19:59:42.121Z,100395.25
2017-10-06T20:00:48.471Z,100393.23
2017-10-06T20:01:54.580Z,100399.06
2017-10-06T20:03:01.600Z,100399.45
2017-10-06T20:04:09.461Z,100400.64
2017-10-06T20:05:16.098Z,100397.72
2017-10-06T20:06:23.106Z,100401.67
2017-10-06T20:07:29.277Z,100398.33
2017-10-06T20:08:35.691Z,100398.75
2017-10-06T20:09:41.777Z,100400.67
2017-10-06T20:10:48.443Z,100396.16
2017-10-06T20:11:59.761Z,100398.85
2017-10-06T20:13:07.184Z,100398.64
2017-10-06T20:14:13.794Z,100398.48
2017-10-06T20:15:20.423Z,100401.72
2017-10-06T20:16:27.636Z,100402.70
2017-10-06T20:17:34.651Z,100406.15
2017-10-06T20:18:40.858Z,100404.11
2017-10-06T20:19:48.792Z,100401.39
2017-10-06T20:20:55.455Z,100407.09
2017-10-06T20:22:01.792Z,100409.43
2017-10-06T20:23:08.236Z,100404.34
2017-10-06T20:24:14.652Z,100408.24
2017-10-06T20:25:21.948Z,100410.16
2017-10-06T20:26:30.098Z,100412.66
2017-10-06T20:27:36.362Z,100417.30
2017-10-06T20:28:42.722Z,100414.70
2017-10-06T20:29:50.850Z,100415.90
2017-10-06T20:30:57.312Z,100412.16
2017-10-06T20:32:04.808Z,100418.32
2017-10-06T20:33:12.113Z,100419.85
2017-10-06T20:34:19.786Z,100411.44
2017-10-06T20:35:26.213Z,100418.19
2017-10-06T20:36:33.452Z,100411.14
2017-10-06T20:37:40.514Z,100417.69
2017-10-06T20:38:47.476Z,100417.84
2017-10-06T20:39:56.215Z,100424.48
2017-10-06T20:41:02.850Z,100420.70
2017-10-06T20:42:11.696Z,100423.63
2017-10-06T20:43:18.853Z,100423.08
2017-10-06T20:44:26.024Z,100432.69
2017-10-06T20:45:32.522Z,100426.02
2017-10-06T20:46:40.278Z,100431.70
2017-10-06T20:47:47.399Z,100433.07
2017-10-06T20:48:54.005Z,100428.64
2017-10-06T20:50:00.384Z,100433.70
2017-10-06T20:51:07.111Z,100431.36
2017-10-06T20:52:12.966Z,100433.15
2017-10-06T20:53:19.841Z,100436.22
2017-10-06T20:54:26.191Z,100440.59
2017-10-06T20:55:32.497Z,100439.52
2017-10-06T20:56:38.752Z,100441.61
2017-10-06T20:57:45.861Z,100440.30
2017-10-06T20:58:52.123Z,100436.38
2017-10-06T20:59:58.592Z,100443.05
2017-10-06T21:01:04.851Z,100432.30
2017-10-06T21:02:10.989Z,100441.22
2017-10-06T21:03:18.248Z,100440.81
2017-10-06T21:04:24.317Z,100441.83
2017-10-06T21:05:30.569Z,100444.22
2017-10-06T21:06:38.147Z,100442.69
2017-10-06T21:07:44.520Z,100442.81
2017-10-06T21:08:50.756Z,100441.92
2017-10-06T21:09:56.970Z,100439.92
2017-10-06T21:11:03.877Z,100444.30
2017-10-06T21:12:10.259Z,100441.66
2017-10-06T21:13:17.762Z,100446.17
2017-10-06T21:14:24.029Z,100441.78
2017-10-06T21:15:31.010Z,100445.86
2017-10-06T21:16:37.902Z,100446.89
2017-10-06T21:17:44.069Z,100452.08
2017-10-06T21:18:51.156Z,100450.89
2017-10-06T21:19:57.283Z,100448.09
2017-10-06T21:21:03.770Z,100453.48
2017-10-06T21:22:09.958Z,100448.34
2017-10-06T21:23:16.649Z,100453.74
2017-10-06T21:24:23.233Z,100455.10
2017-10-06T21:25:29.263Z,100448.38
2017-10-06T21:26:36.746Z,100451.83
2017-10-06T21:27:42.906Z,100458.70
2017-10-06T21:28:50.200Z,100457.39
2017-10-06T21:29:57.457Z,100457.14
2017-10-06T21:31:04.091Z,100461.18
2017-10-06T21:32:10.270Z,100462.16
2017-10-06T21:33:16.507Z,100463.05
2017-10-06T21:34:22.733Z,100464.37
2017-10-06T21:35:30.154Z,100464.02
2017-10-06T21:36:36.213Z,100468.78
2017-10-06T21:37:42.266Z,100467.29
2017-10-06T21:38:48.204Z,100469.55
2017-10-06T21:39:54.475Z,100469.75
2017-10-06T21:41:00.704Z,100467.29
2017-10-06T21:42:07.054Z,100472.44
2017-10-06T21:43:13.140Z,100475.08
2017-10-06T21:44:20.894Z,100473.36
2017-10-06T21:45:26.939Z,100468.47
2017-10-06T21:46:32.978Z,100470.61
2017-10-06T21:47:39.058Z,100473.74
2017-10-06T21:48:45.213Z,100474.97
2017-10-06T21:49:51.337Z,100477.05
2017-10-06T21:50:57.423Z,100474.04
2017-10-06T21:52:04.253Z,100478.04
2017-10-06T21:53:10.097Z,100479.95
2017-10-06T21:54:16.360Z,100480.97
2017-10-06T21:55:22.624Z,100482.85
2017-10-06T21:56:29.674Z,100483.36
2017-10-06T21:57:35.585Z,100473.38
2017-10-06T21:58:42.465Z,100476.61
2017-10-06T21:59:48.720Z,100483.08
2017-10-06T22:00:55.600Z,100486.86
2017-10-06T22:02:01.756Z,100485.50
2017-10-06T22:03:07.790Z,100486.61
2017-10-06T22:04:13.655Z,100484.40
2017-10-06T22:05:19.458Z,100488.02
2017-10-06T22:06:25.366Z,100495.47
2017-10-06T22:07:31.498Z,100492.23
2017-10-06T22:08:37.331Z,100493.89
2017-10-06T22:09:43.381Z,100492.09
2017-10-06T22:10:49.253Z,100495.16
2017-10-06T22:11:55.174Z,100495.41
2017-10-06T22:13:01.735Z,100491.20
2017-10-06T22:14:07.502Z,100491.24
2017-10-06T22:15:13.286Z,100497.54
2017-10-06T22:16:19.263Z,100497.08
2017-10-06T22:17:25.039Z,100495.41
2017-10-06T22:18:31.764Z,100502.21
2017-10-06T22:19:38.302Z,100503.62
2017-10-06T22:20:45.078Z,100504.17
2017-10-06T22:21:52.678Z,100509.69
2017-10-06T22:22:58.415Z,100506.07
2017-10-06T22:24:05.061Z,100512.14
2017-10-06T22:25:11.603Z,100505.63
2017-10-06T22:26:17.588Z,100509.62
2017-10-06T22:27:23.518Z,100512.77
2017-10-06T22:28:29.940Z,100510.35
2017-10-06T22:29:35.742Z,100511.84
2017-10-06T22:30:42.300Z,100514.56
2017-10-06T22:31:47.891Z,100516.00
2017-10-06T22:32:54.441Z,100512.89
2017-10-06T22:34:00.241Z,100511.83
2017-10-06T22:35:06.085Z,100505.66
2017-10-06T22:36:11.965Z,100508.69
2017-10-06T22:37:17.706Z,100505.15
2017-10-06T22:38:23.490Z,100513.27
2017-10-06T22:39:29.298Z,100510.64
2017-10-06T22:40:35.139Z,100511.64
2017-10-06T22:41:40.709Z,100506.55
2017-10-06T22:42:47.268Z,100509.72
2017-10-06T22:43:53.824Z,100504.92
2017-10-06T22:45:00.371Z,100506.91
2017-10-06T22:46:06.163Z,100503.61
2017-10-06T22:47:11.955Z,100509.93
2017-10-06T22:48:18.499Z,100509.50
2017-10-06T22:49:24.325Z,100513.23
2017-10-06T22:50:30.145Z,100510.99
2017-10-06T22:51:35.762Z,100514.34
2017-10-06T22:52:42.299Z,100522.45
2017-10-06T22:53:48.243Z,100523.17
2017-10-06T22:54:53.867Z,100523.62
2017-10-06T22:55:59.689Z,100525.28
2017-10-06T22:57:05.641Z,100528.64
2017-10-06T22:58:11.413Z,100522.83
2017-10-06T22:59:17.170Z,100529.11
2017-10-06T23:00:24.061Z,100527.70
2017-10-06T23:01:29.840Z,100525.23
2017-10-06T23:02:35.853Z,100526.17
2017-10-06T23:03:41.734Z,100534.08
2017-10-06T23:04:47.737Z,100535.00
2017-10-06T23:05:53.508Z,100539.55
2017-10-06T23:06:59.083Z,100541.80
2017-10-06T23:08:05.816Z,100540.91
2017-10-06T23:09:11.618Z,100538.14
2017-10-06T23:10:18.564Z,100537.50
2017-10-06T23:11:24.310Z,100539.48
2017-10-06T23:12:30.679Z,100532.95
2017-10-06T23:13:36.513Z,100535.80
2017-10-06T23:14:42.289Z,100536.46
2017-10-06T23:15:48.084Z,100530.69
2017-10-06T23:16:53.859Z,100539.26
2017-10-06T23:17:59.461Z,100529.34
2017-10-06T23:19:05.373Z,100536.58
2017-10-06T23:20:11.148Z,100529.67
2017-10-06T23:21:16.945Z,100531.66
2017-10-06T23:22:22.836Z,100530.55
2017-10-06T23:23:30.159Z,100528.05
2017-10-06T23:24:35.968Z,100529.15
2017-10-06T23:25:42.488Z,100528.68
2017-10-06T23:26:48.031Z,100530.29
2017-10-06T23:27:53.805Z,100530.79
2017-10-06T23:29:00.376Z,100537.12
2017-10-06T23:30:06.913Z,100533.16
2017-10-06T23:31:12.669Z,100526.59
2017-10-06T23:32:19.185Z,100528.94
2017-10-06T23:33:24.943Z,100531.42
2017-10-06T23:34:30.694Z,100535.33
2017-10-06T23:35:36.484Z,100531.68
2017-10-06T23:36:42.240Z,100541.00
2017-10-06T23:37:48.004Z,100539.44
2017-10-06T23:38:53.815Z,100542.59
2017-10-06T23:39:59.622Z,100538.53
2017-10-06T23:41:06.184Z,100542.45
2017-10-06T23:42:12.688Z,100546.92
2017-10-06T23:43:18.457Z,100546.81
2017-10-06T23:44:24.225Z,100545.77
2017-10-06T23:45:29.977Z,100547.03
2017-10-06T23:46:36.536Z,100549.34
2017-10-06T23:47:43.063Z,100553.22
2017-10-06T23:48:48.605Z,100551.63
2017-10-06T23:49:55.860Z,100552.91
2017-10-06T23:51:01.685Z,100557.38
2017-10-06T23:52:07.480Z,100552.37
2017-10-06T23:53:13.988Z,100553.44
2017-10-06T23:54:19.747Z,100554.16
2017-10-06T23:55:25.501Z,100557.44
2017-10-06T23:56:31.261Z,100557.02
2017-10-06T23:57:36.844Z,100557.74
2017-10-06T23:58:42.605Z,100550.42
2017-10-06T23:59:48.357Z,100551.95
